createdAt,value
2023-02-04T00:01:58.498Z,4.95
2023-02-04T00:07:00.151Z,4.65
2023-02-04T00:12:01.797Z,5.00
2023-02-04T00:17:03.468Z,4.70
2023-02-04T00:22:05.256Z,3.83
2023-02-04T00:27:07.554Z,4.07
2023-02-04T00:32:09.344Z,4.18
2023-02-04T00:37:11.088Z,4.00
2023-02-04T00:42:13.062Z,4.10
2023-02-04T00:47:14.735Z,4.68
2023-02-04T00:52:16.334Z,4.00
2023-02-04T00:57:19.777Z,3.90
2023-02-04T01:02:21.418Z,4.35
2023-02-04T01:07:23.327Z,4.45
2023-02-04T01:12:27.300Z,3.55
2023-02-04T01:17:29.189Z,3.88
2023-02-04T01:22:30.889Z,3.83
2023-02-04T01:27:32.597Z,4.03
2023-02-04T01:32:34.431Z,4.38
2023-02-04T01:37:36.152Z,4.40
2023-02-04T01:42:38.729Z,3.80
2023-02-04T01:47:40.671Z,4.05
2023-02-04T01:52:44.245Z,4.88
2023-02-04T01:57:46.594Z,4.53
2023-02-04T02:02:51.151Z,4.10
2023-02-04T02:07:57.197Z,4.38
2023-02-04T02:12:59.408Z,4.55
2023-02-04T02:18:01.278Z,4.10
2023-02-04T02:23:18.045Z,4.75
2023-02-04T02:28:22.142Z,3.90
2023-02-04T02:33:25.450Z,3.95
2023-02-04T02:38:27.186Z,5.18
2023-02-04T02:43:30.170Z,5.43
2023-02-04T02:48:32.670Z,4.10
2023-02-04T02:53:34.626Z,4.18
2023-02-04T02:58:36.538Z,4.38
2023-02-04T03:03:56.605Z,3.75
2023-02-04T03:08:58.539Z,3.25
2023-02-04T03:14:03.789Z,3.78
2023-02-04T03:19:07.608Z,4.38
2023-02-04T03:24:09.683Z,4.15
2023-02-04T03:29:12.715Z,3.78
2023-02-04T03:34:14.426Z,3.80
2023-02-04T03:39:16.040Z,4.65
2023-02-04T03:44:18.764Z,4.20
2023-02-04T03:49:20.335Z,3.90
2023-02-04T03:54:21.930Z,5.20
2023-02-04T03:59:40.759Z,4.22
2023-02-04T04:04:42.457Z,4.63
2023-02-04T04:09:44.102Z,4.40
2023-02-04T04:14:45.776Z,4.82
2023-02-04T04:19:49.457Z,4.60
2023-02-04T04:24:51.140Z,3.83
2023-02-04T04:29:52.838Z,5.03
2023-02-04T04:34:55.592Z,5.88
2023-02-04T04:39:57.262Z,4.40
2023-02-04T04:44:58.880Z,4.43
2023-02-04T04:50:00.511Z,4.70
2023-02-04T04:55:02.128Z,4.72
2023-02-04T05:00:05.443Z,5.00
2023-02-04T05:05:07.226Z,4.05
2023-02-04T05:10:09.511Z,4.35
2023-02-04T05:15:11.399Z,5.22
2023-02-04T05:20:13.066Z,4.22
2023-02-04T05:25:16.721Z,4.47
2023-02-04T05:30:18.443Z,4.07
2023-02-04T05:35:20.256Z,4.88
2023-02-04T05:40:21.993Z,4.38
2023-02-04T05:45:23.718Z,4.88
2023-02-04T05:50:25.523Z,5.28
2023-02-04T05:55:42.956Z,3.72
2023-02-04T06:00:44.595Z,4.72
2023-02-04T06:05:46.229Z,5.40
2023-02-04T06:10:47.877Z,5.75
2023-02-04T06:15:49.545Z,4.28
2023-02-04T06:20:51.180Z,4.40
2023-02-04T06:25:52.854Z,4.45
2023-02-04T06:30:54.600Z,3.97
2023-02-04T06:35:56.350Z,4.13
2023-02-04T06:40:58.034Z,4.47
2023-02-04T06:45:59.666Z,4.85
2023-02-04T06:51:01.369Z,4.57
2023-02-04T06:56:03.141Z,4.55
2023-02-04T07:01:06.345Z,4.20
2023-02-04T07:06:08.185Z,4.72
2023-02-04T07:11:10.007Z,4.05
2023-02-04T07:16:11.718Z,5.38
2023-02-04T07:21:13.356Z,5.03
2023-02-04T07:26:14.951Z,4.40
2023-02-04T07:31:16.753Z,5.28
2023-02-04T07:36:18.479Z,6.05
2023-02-04T07:41:21.108Z,5.45
2023-02-04T07:46:22.754Z,6.47
2023-02-04T07:51:24.415Z,6.15
2023-02-04T07:56:26.070Z,7.03
2023-02-04T08:01:27.730Z,6.80
2023-02-04T08:06:29.412Z,6.05
2023-02-04T08:11:31.276Z,5.82
2023-02-04T08:16:32.878Z,7.55
2023-02-04T08:21:34.525Z,5.55
2023-02-04T08:26:36.305Z,6.13
2023-02-04T08:31:40.794Z,6.20
2023-02-04T08:36:44.753Z,6.43
2023-02-04T08:41:46.417Z,5.50
2023-02-04T08:46:48.143Z,7.82
2023-02-04T08:51:49.819Z,5.82
2023-02-04T08:56:51.502Z,5.90
2023-02-04T09:01:53.292Z,5.45
2023-02-04T09:06:55.111Z,5.75
2023-02-04T09:11:56.789Z,5.80
2023-02-04T09:16:58.462Z,5.88
2023-02-04T09:22:00.212Z,5.45
2023-02-04T09:27:01.821Z,5.00
2023-02-04T09:32:03.577Z,4.78
2023-02-04T09:37:05.254Z,4.90
2023-02-04T09:42:10.521Z,4.88
2023-02-04T09:47:15.495Z,4.55
2023-02-04T09:52:18.496Z,5.05
2023-02-04T09:57:21.301Z,4.80
2023-02-04T10:02:26.823Z,4.22
2023-02-04T10:07:29.925Z,4.32
2023-02-04T10:12:32.328Z,3.95
2023-02-04T10:17:33.969Z,4.28
2023-02-04T10:22:36.833Z,5.47
2023-02-04T10:27:48.476Z,5.07
2023-02-04T10:32:50.686Z,5.40
2023-02-04T10:38:06.891Z,4.68
2023-02-04T10:43:17.079Z,4.15
2023-02-04T10:48:19.949Z,4.40
2023-02-04T10:53:41.812Z,5.75
2023-02-04T10:58:43.966Z,4.32
2023-02-04T11:03:48.167Z,4.93
2023-02-04T11:08:53.522Z,5.15
2023-02-04T11:13:55.757Z,5.82
2023-02-04T11:19:06.332Z,4.90
2023-02-04T11:24:16.570Z,4.93
2023-02-04T11:29:34.867Z,4.93
2023-02-04T11:34:49.053Z,3.75
2023-02-04T11:39:51.016Z,4.82
2023-02-04T11:45:13.392Z,3.08
2023-02-04T11:50:25.005Z,4.03
2023-02-04T11:55:28.738Z,2.97
2023-02-04T12:00:32.770Z,3.38
2023-02-04T12:05:45.019Z,4.45
2023-02-04T12:10:51.765Z,4.03
2023-02-04T12:16:05.370Z,3.70
2023-02-04T12:21:14.490Z,2.92
2023-02-04T12:26:16.150Z,3.70
2023-02-04T12:31:25.933Z,3.80
2023-02-04T12:36:29.692Z,15.25
2023-02-04T12:41:31.402Z,5.72
2023-02-04T12:46:33.392Z,4.72
2023-02-04T12:51:35.050Z,6.35
2023-02-04T12:56:36.689Z,5.95
2023-02-04T13:01:38.347Z,5.32
2023-02-04T13:06:40.038Z,5.13
2023-02-04T13:11:41.812Z,4.45
2023-02-04T13:16:43.425Z,4.97
2023-02-04T13:21:45.152Z,5.47
2023-02-04T13:26:46.761Z,4.43
2023-02-04T13:31:49.569Z,4.13
2023-02-04T13:36:51.410Z,5.38
2023-02-04T13:41:53.178Z,5.57
2023-02-04T13:46:54.814Z,4.95
2023-02-04T13:51:56.427Z,5.43
2023-02-04T13:56:58.014Z,4.28
2023-02-04T14:01:59.817Z,4.15
2023-02-04T14:07:01.504Z,4.25
2023-02-04T14:12:03.170Z,4.80
2023-02-04T14:17:04.887Z,4.47
2023-02-04T14:22:07.760Z,4.38
2023-02-04T14:27:10.530Z,3.75
2023-02-04T14:32:12.170Z,3.92
2023-02-04T14:37:13.945Z,3.33
2023-02-04T14:42:15.552Z,3.20
2023-02-04T14:47:17.116Z,4.18
2023-02-04T14:52:18.756Z,3.22
2023-02-04T14:57:21.586Z,4.40
2023-02-04T15:02:24.728Z,3.20
2023-02-04T15:07:26.644Z,2.63
2023-02-04T15:12:28.248Z,3.00
2023-02-04T15:17:30.080Z,2.70
2023-02-04T15:22:31.902Z,2.10
2023-02-04T15:27:33.717Z,2.20
2023-02-04T15:32:35.522Z,2.17
2023-02-04T15:37:37.114Z,2.50
2023-02-04T15:42:38.685Z,3.00
2023-02-04T15:47:40.285Z,3.58
2023-02-04T15:52:42.036Z,3.25
2023-02-04T15:57:43.607Z,3.25
2023-02-04T16:02:46.047Z,4.05
2023-02-04T16:07:48.101Z,3.05
2023-02-04T16:12:51.315Z,3.70
2023-02-04T16:17:55.516Z,4.22
2023-02-04T16:22:57.178Z,5.03
2023-02-04T16:27:58.780Z,4.63
2023-02-04T16:33:00.403Z,4.10
2023-02-04T16:38:01.973Z,4.30
2023-02-04T16:43:05.020Z,3.90
2023-02-04T16:48:06.619Z,6.20
2023-02-04T16:53:10.562Z,5.57
2023-02-04T16:58:13.071Z,4.97
2023-02-04T17:03:14.995Z,5.53
2023-02-04T17:08:17.441Z,5.53
2023-02-04T17:13:19.836Z,7.10
2023-02-04T17:18:21.523Z,7.22
2023-02-04T17:23:23.296Z,8.82
2023-02-04T17:28:26.197Z,10.48
2023-02-04T17:33:28.939Z,10.95
2023-02-04T17:38:31.644Z,6.65
2023-02-04T17:43:34.557Z,7.28
2023-02-04T17:48:36.611Z,8.60
2023-02-04T17:53:40.513Z,8.40
2023-02-04T17:58:42.770Z,8.32
2023-02-04T18:03:46.460Z,9.20
2023-02-04T18:08:49.996Z,9.07
2023-02-04T18:13:52.836Z,12.13
2023-02-04T18:18:57.804Z,9.40
2023-02-04T18:24:07.078Z,10.70
2023-02-04T18:29:36.346Z,9.67
2023-02-04T18:34:44.954Z,12.43
2023-02-04T18:39:46.710Z,15.55
2023-02-04T18:44:48.845Z,11.30
2023-02-04T18:49:50.532Z,11.65
2023-02-04T18:54:54.531Z,16.17
2023-02-04T19:00:08.673Z,16.58
2023-02-04T19:05:32.094Z,15.05
2023-02-04T19:10:37.380Z,16.60
2023-02-04T19:15:39.774Z,15.18
2023-02-04T19:20:41.562Z,15.35
2023-02-04T19:25:48.442Z,15.07
2023-02-04T19:30:50.950Z,13.98
2023-02-04T19:35:52.815Z,11.98
2023-02-04T19:40:54.617Z,11.02
2023-02-04T19:45:56.291Z,11.85
2023-02-04T19:50:58.700Z,11.60
2023-02-04T19:56:00.355Z,12.10
2023-02-04T20:01:04.937Z,9.52
2023-02-04T20:06:09.407Z,10.02
2023-02-04T20:11:29.744Z,11.07
2023-02-04T20:16:49.896Z,10.77
2023-02-04T20:22:17.326Z,10.57
2023-02-04T20:27:25.530Z,12.27
2023-02-04T20:32:30.063Z,9.55
2023-02-04T20:37:31.753Z,9.93
2023-02-04T20:42:40.778Z,10.82
2023-02-04T20:47:42.452Z,11.00
2023-02-04T20:52:45.558Z,12.10
2023-02-04T20:57:48.179Z,12.82
2023-02-04T21:02:49.834Z,12.68
2023-02-04T21:07:57.828Z,11.73
2023-02-04T21:13:01.356Z,11.45
2023-02-04T21:18:03.128Z,12.27
2023-02-04T21:23:05.212Z,13.07
2023-02-04T21:28:15.318Z,12.45
2023-02-04T21:33:17.308Z,12.00
2023-02-04T21:38:19.036Z,11.40
2023-02-04T21:43:20.697Z,12.45
2023-02-04T21:48:23.243Z,11.93
2023-02-04T21:53:25.019Z,12.32
2023-02-04T21:58:26.847Z,11.85
2023-02-04T22:03:28.604Z,12.15
2023-02-04T22:08:30.294Z,11.65
2023-02-04T22:13:31.876Z,12.43
2023-02-04T22:18:33.550Z,12.23
2023-02-04T22:23:35.157Z,12.57
2023-02-04T22:28:36.789Z,13.18
2023-02-04T22:33:38.452Z,14.27
2023-02-04T22:38:40.339Z,14.68
2023-02-04T22:43:42.041Z,15.20
2023-02-04T22:48:43.679Z,14.32
2023-02-04T22:53:45.295Z,14.18
2023-02-04T22:58:46.972Z,13.65
2023-02-04T23:03:49.239Z,14.65
2023-02-04T23:08:53.276Z,15.30
2023-02-04T23:13:55.822Z,14.30
2023-02-04T23:18:57.649Z,14.95
2023-02-04T23:24:00.622Z,14.32
2023-02-04T23:29:02.847Z,14.10
2023-02-04T23:34:04.503Z,14.05
2023-02-04T23:39:06.239Z,14.18
2023-02-04T23:44:07.863Z,13.90
2023-02-04T23:49:10.007Z,14.77
2023-02-04T23:54:12.088Z,13.63
2023-02-04T23:59:13.739Z,12.80
